sensor_id;sensor_type;location;lat;lon;timestamp;temperature;humidity
240;DHT22;104;53.590;10.004;2022-09-03T00:00:07;14.10;83.40
240;DHT22;104;53.590;10.004;2022-09-03T00:02:41;14.10;83.60
240;DHT22;104;53.590;10.004;2022-09-03T00:05:16;14.10;83.70
240;DHT22;104;53.590;10.004;2022-09-03T00:07:50;14.00;83.80
240;DHT22;104;53.590;10.004;2022-09-03T00:10:23;14.00;84.00
240;DHT22;104;53.590;10.004;2022-09-03T00:12:53;13.90;84.00
240;DHT22;104;53.590;10.004;2022-09-03T00:15:24;13.90;83.90
240;DHT22;104;53.590;10.004;2022-09-03T00:17:56;13.90;83.80
240;DHT22;104;53.590;10.004;2022-09-03T00:20:27;13.80;84.20
240;DHT22;104;53.590;10.004;2022-09-03T00:22:59;13.80;84.30
240;DHT22;104;53.590;10.004;2022-09-03T00:25:32;13.80;84.30
240;DHT22;104;53.590;10.004;2022-09-03T00:28:03;13.80;84.30
240;DHT22;104;53.590;10.004;2022-09-03T00:30:31;13.80;84.20
240;DHT22;104;53.590;10.004;2022-09-03T00:33:02;13.70;84.00
240;DHT22;104;53.590;10.004;2022-09-03T00:35:36;13.70;84.10
240;DHT22;104;53.590;10.004;2022-09-03T00:38:07;13.60;84.20
240;DHT22;104;53.590;10.004;2022-09-03T00:40:45;13.50;84.40
240;DHT22;104;53.590;10.004;2022-09-03T00:43:20;13.50;84.50
240;DHT22;104;53.590;10.004;2022-09-03T00:45:57;13.40;84.80
240;DHT22;104;53.590;10.004;2022-09-03T00:48:31;13.40;84.60
240;DHT22;104;53.590;10.004;2022-09-03T00:51:09;13.40;84.90
240;DHT22;104;53.590;10.004;2022-09-03T00:53:45;13.30;84.80
240;DHT22;104;53.590;10.004;2022-09-03T00:56:21;13.30;85.20
240;DHT22;104;53.590;10.004;2022-09-03T00:59:06;13.30;85.70
240;DHT22;104;53.590;10.004;2022-09-03T01:01:44;13.30;86.10
240;DHT22;104;53.590;10.004;2022-09-03T01:04:30;13.30;86.40
240;DHT22;104;53.590;10.004;2022-09-03T01:07:06;13.30;86.10
240;DHT22;104;53.590;10.004;2022-09-03T01:09:43;13.30;86.30
240;DHT22;104;53.590;10.004;2022-09-03T01:12:18;13.30;86.30
240;DHT22;104;53.590;10.004;2022-09-03T01:14:59;13.20;86.90
240;DHT22;104;53.590;10.004;2022-09-03T01:17:39;13.20;88.10
240;DHT22;104;53.590;10.004;2022-09-03T01:20:24;13.10;88.50
240;DHT22;104;53.590;10.004;2022-09-03T01:29:00;13.10;89.60
240;DHT22;104;53.590;10.004;2022-09-03T01:31:36;13.10;89.60
240;DHT22;104;53.590;10.004;2022-09-03T01:34:12;13.10;88.90
240;DHT22;104;53.590;10.004;2022-09-03T01:36:48;13.10;88.70
240;DHT22;104;53.590;10.004;2022-09-03T01:39:26;13.00;88.30
240;DHT22;104;53.590;10.004;2022-09-03T01:42:01;13.00;88.40
240;DHT22;104;53.590;10.004;2022-09-03T01:45:06;13.00;87.90
240;DHT22;104;53.590;10.004;2022-09-03T01:47:50;13.00;87.90
240;DHT22;104;53.590;10.004;2022-09-03T01:50:28;13.00;87.60
240;DHT22;104;53.590;10.004;2022-09-03T01:53:05;12.90;87.60
240;DHT22;104;53.590;10.004;2022-09-03T01:55:42;12.90;87.50
240;DHT22;104;53.590;10.004;2022-09-03T01:58:15;12.80;87.80
240;DHT22;104;53.590;10.004;2022-09-03T02:00:49;12.80;87.80
240;DHT22;104;53.590;10.004;2022-09-03T02:03:22;12.80;87.90
240;DHT22;104;53.590;10.004;2022-09-03T02:05:49;12.80;88.20
240;DHT22;104;53.590;10.004;2022-09-03T02:08:18;12.80;88.30
240;DHT22;104;53.590;10.004;2022-09-03T02:10:48;12.90;87.60
240;DHT22;104;53.590;10.004;2022-09-03T02:13:19;12.90;87.50
240;DHT22;104;53.590;10.004;2022-09-03T02:15:51;12.80;87.80
240;DHT22;104;53.590;10.004;2022-09-03T02:18:22;12.80;88.00
240;DHT22;104;53.590;10.004;2022-09-03T02:20:52;12.80;88.00
240;DHT22;104;53.590;10.004;2022-09-03T02:23:20;12.80;87.70
240;DHT22;104;53.590;10.004;2022-09-03T02:25:50;12.80;87.80
240;DHT22;104;53.590;10.004;2022-09-03T02:28:18;12.80;88.20
240;DHT22;104;53.590;10.004;2022-09-03T02:30:45;12.80;88.20
240;DHT22;104;53.590;10.004;2022-09-03T02:33:14;12.80;88.00
240;DHT22;104;53.590;10.004;2022-09-03T02:35:42;12.80;88.00
240;DHT22;104;53.590;10.004;2022-09-03T02:38:11;12.70;88.20
240;DHT22;104;53.590;10.004;2022-09-03T02:40:38;12.70;88.50
240;DHT22;104;53.590;10.004;2022-09-03T02:43:10;12.80;88.30
240;DHT22;104;53.590;10.004;2022-09-03T02:45:41;12.80;88.20
240;DHT22;104;53.590;10.004;2022-09-03T02:48:15;12.80;88.20
240;DHT22;104;53.590;10.004;2022-09-03T02:50:43;12.80;88.10
240;DHT22;104;53.590;10.004;2022-09-03T02:53:10;12.80;88.10
240;DHT22;104;53.590;10.004;2022-09-03T02:55:37;12.80;87.80
240;DHT22;104;53.590;10.004;2022-09-03T02:58:04;12.80;87.70
240;DHT22;104;53.590;10.004;2022-09-03T03:00:33;12.90;87.40
240;DHT22;104;53.590;10.004;2022-09-03T03:03:00;13.00;87.20
240;DHT22;104;53.590;10.004;2022-09-03T03:05:35;13.10;86.80
240;DHT22;104;53.590;10.004;2022-09-03T03:08:06;13.20;86.80
240;DHT22;104;53.590;10.004;2022-09-03T03:10:33;13.20;86.50
240;DHT22;104;53.590;10.004;2022-09-03T03:13:01;13.30;86.10
240;DHT22;104;53.590;10.004;2022-09-03T03:15:28;13.30;86.10
240;DHT22;104;53.590;10.004;2022-09-03T03:17:56;13.30;86.00
240;DHT22;104;53.590;10.004;2022-09-03T03:20:23;13.30;85.90
240;DHT22;104;53.590;10.004;2022-09-03T03:22:52;13.30;85.80
240;DHT22;104;53.590;10.004;2022-09-03T03:25:19;13.30;86.10
240;DHT22;104;53.590;10.004;2022-09-03T03:27:46;13.30;86.10
240;DHT22;104;53.590;10.004;2022-09-03T03:30:13;13.30;85.80
240;DHT22;104;53.590;10.004;2022-09-03T03:32:40;13.30;85.80
240;DHT22;104;53.590;10.004;2022-09-03T03:35:07;13.30;86.00
240;DHT22;104;53.590;10.004;2022-09-03T03:37:36;13.30;85.80
240;DHT22;104;53.590;10.004;2022-09-03T03:40:05;13.20;86.10
240;DHT22;104;53.590;10.004;2022-09-03T03:42:33;13.30;86.20
240;DHT22;104;53.590;10.004;2022-09-03T03:45:00;13.30;86.10
240;DHT22;104;53.590;10.004;2022-09-03T03:47:27;13.30;86.20
240;DHT22;104;53.590;10.004;2022-09-03T03:49:55;13.30;86.20
240;DHT22;104;53.590;10.004;2022-09-03T03:52:23;13.40;86.30
240;DHT22;104;53.590;10.004;2022-09-03T03:54:50;13.30;86.20
240;DHT22;104;53.590;10.004;2022-09-03T03:57:19;13.20;86.50
240;DHT22;104;53.590;10.004;2022-09-03T03:59:47;13.10;86.80
240;DHT22;104;53.590;10.004;2022-09-03T04:02:15;13.00;87.20
240;DHT22;104;53.590;10.004;2022-09-03T04:04:42;12.90;87.70
240;DHT22;104;53.590;10.004;2022-09-03T04:07:10;12.90;87.80
240;DHT22;104;53.590;10.004;2022-09-03T04:09:37;12.80;88.00
240;DHT22;104;53.590;10.004;2022-09-03T04:12:05;12.80;88.40
240;DHT22;104;53.590;10.004;2022-09-03T04:14:34;12.80;88.40
240;DHT22;104;53.590;10.004;2022-09-03T04:17:01;12.80;88.30
240;DHT22;104;53.590;10.004;2022-09-03T04:19:29;12.80;88.50
240;DHT22;104;53.590;10.004;2022-09-03T04:21:56;12.80;88.60
240;DHT22;104;53.590;10.004;2022-09-03T04:24:23;12.80;88.50
240;DHT22;104;53.590;10.004;2022-09-03T04:26:50;12.70;88.80
240;DHT22;104;53.590;10.004;2022-09-03T04:29:18;12.60;89.10
240;DHT22;104;53.590;10.004;2022-09-03T04:31:48;12.60;89.10
240;DHT22;104;53.590;10.004;2022-09-03T04:34:29;12.60;89.20
240;DHT22;104;53.590;10.004;2022-09-03T04:36:56;12.50;89.40
240;DHT22;104;53.590;10.004;2022-09-03T04:39:23;12.50;89.40
240;DHT22;104;53.590;10.004;2022-09-03T04:41:51;12.50;89.70
240;DHT22;104;53.590;10.004;2022-09-03T04:44:18;12.40;89.80
240;DHT22;104;53.590;10.004;2022-09-03T04:46:46;12.50;89.60
240;DHT22;104;53.590;10.004;2022-09-03T04:49:14;12.40;89.60
240;DHT22;104;53.590;10.004;2022-09-03T04:51:41;12.40;89.70
240;DHT22;104;53.590;10.004;2022-09-03T04:54:09;12.40;89.70
240;DHT22;104;53.590;10.004;2022-09-03T04:56:38;12.50;89.80
240;DHT22;104;53.590;10.004;2022-09-03T04:59:06;12.50;89.90
240;DHT22;104;53.590;10.004;2022-09-03T05:01:35;12.60;89.40
240;DHT22;104;53.590;10.004;2022-09-03T05:04:05;12.70;88.90
240;DHT22;104;53.590;10.004;2022-09-03T05:06:33;12.70;89.00
240;DHT22;104;53.590;10.004;2022-09-03T05:09:02;12.80;88.90
240;DHT22;104;53.590;10.004;2022-09-03T05:11:29;12.90;88.70
240;DHT22;104;53.590;10.004;2022-09-03T05:13:58;13.00;87.90
240;DHT22;104;53.590;10.004;2022-09-03T05:16:26;13.00;87.50
240;DHT22;104;53.590;10.004;2022-09-03T05:18:56;13.10;87.70
240;DHT22;104;53.590;10.004;2022-09-03T05:21:26;13.30;87.10
240;DHT22;104;53.590;10.004;2022-09-03T05:23:53;13.50;86.40
240;DHT22;104;53.590;10.004;2022-09-03T05:26:21;13.70;85.60
240;DHT22;104;53.590;10.004;2022-09-03T05:28:52;13.80;84.90
240;DHT22;104;53.590;10.004;2022-09-03T05:31:20;13.80;84.80
240;DHT22;104;53.590;10.004;2022-09-03T05:33:49;13.90;84.50
240;DHT22;104;53.590;10.004;2022-09-03T05:36:19;13.90;84.50
240;DHT22;104;53.590;10.004;2022-09-03T05:38:48;14.00;84.20
240;DHT22;104;53.590;10.004;2022-09-03T05:41:16;14.20;83.60
240;DHT22;104;53.590;10.004;2022-09-03T05:43:44;14.20;83.70
240;DHT22;104;53.590;10.004;2022-09-03T05:46:12;14.20;83.40
240;DHT22;104;53.590;10.004;2022-09-03T05:48:40;14.20;83.50
240;DHT22;104;53.590;10.004;2022-09-03T05:51:09;14.10;83.60
240;DHT22;104;53.590;10.004;2022-09-03T05:53:38;14.10;83.70
240;DHT22;104;53.590;10.004;2022-09-03T05:56:09;14.10;83.90
240;DHT22;104;53.590;10.004;2022-09-03T05:58:38;14.10;83.80
240;DHT22;104;53.590;10.004;2022-09-03T06:01:11;14.00;83.90
240;DHT22;104;53.590;10.004;2022-09-03T06:03:38;13.90;84.20
240;DHT22;104;53.590;10.004;2022-09-03T06:06:06;13.90;84.50
240;DHT22;104;53.590;10.004;2022-09-03T06:08:33;13.90;84.70
240;DHT22;104;53.590;10.004;2022-09-03T06:11:02;14.00;84.40
240;DHT22;104;53.590;10.004;2022-09-03T06:13:32;14.20;83.90
240;DHT22;104;53.590;10.004;2022-09-03T06:16:00;14.50;82.40
240;DHT22;104;53.590;10.004;2022-09-03T06:18:29;14.50;81.90
240;DHT22;104;53.590;10.004;2022-09-03T06:20:57;14.60;82.00
240;DHT22;104;53.590;10.004;2022-09-03T06:23:25;14.50;82.00
240;DHT22;104;53.590;10.004;2022-09-03T06:26:00;14.30;82.40
240;DHT22;104;53.590;10.004;2022-09-03T06:28:27;14.20;82.80
240;DHT22;104;53.590;10.004;2022-09-03T06:30:58;14.20;83.10
240;DHT22;104;53.590;10.004;2022-09-03T06:33:26;14.40;83.00
240;DHT22;104;53.590;10.004;2022-09-03T06:35:55;14.60;81.60
240;DHT22;104;53.590;10.004;2022-09-03T06:38:24;14.70;81.30
240;DHT22;104;53.590;10.004;2022-09-03T06:40:53;15.10;80.40
240;DHT22;104;53.590;10.004;2022-09-03T06:43:20;15.40;79.20
240;DHT22;104;53.590;10.004;2022-09-03T06:45:55;15.70;78.40
240;DHT22;104;53.590;10.004;2022-09-03T06:48:24;16.00;77.20
240;DHT22;104;53.590;10.004;2022-09-03T06:50:56;16.50;76.10
240;DHT22;104;53.590;10.004;2022-09-03T06:53:24;16.70;74.30
240;DHT22;104;53.590;10.004;2022-09-03T06:55:55;17.00;74.00
240;DHT22;104;53.590;10.004;2022-09-03T06:58:22;17.40;73.00
240;DHT22;104;53.590;10.004;2022-09-03T07:00:49;17.50;71.10
240;DHT22;104;53.590;10.004;2022-09-03T07:03:18;17.10;72.70
240;DHT22;104;53.590;10.004;2022-09-03T07:05:47;16.90;73.40
240;DHT22;104;53.590;10.004;2022-09-03T07:08:14;16.80;73.20
240;DHT22;104;53.590;10.004;2022-09-03T07:10:45;16.50;74.10
240;DHT22;104;53.590;10.004;2022-09-03T07:13:12;16.60;74.80
240;DHT22;104;53.590;10.004;2022-09-03T07:15:39;16.80;74.30
240;DHT22;104;53.590;10.004;2022-09-03T07:18:07;16.90;73.30
240;DHT22;104;53.590;10.004;2022-09-03T07:20:34;17.00;73.40
240;DHT22;104;53.590;10.004;2022-09-03T07:23:02;16.90;73.00
240;DHT22;104;53.590;10.004;2022-09-03T07:25:29;16.80;73.20
240;DHT22;104;53.590;10.004;2022-09-03T07:27:56;16.80;73.90
240;DHT22;104;53.590;10.004;2022-09-03T07:30:24;16.80;74.00
240;DHT22;104;53.590;10.004;2022-09-03T07:32:52;16.80;74.00
240;DHT22;104;53.590;10.004;2022-09-03T07:35:19;16.80;73.60
240;DHT22;104;53.590;10.004;2022-09-03T07:37:50;16.80;74.20
240;DHT22;104;53.590;10.004;2022-09-03T07:40:18;16.90;73.50
240;DHT22;104;53.590;10.004;2022-09-03T07:42:45;16.90;73.40
240;DHT22;104;53.590;10.004;2022-09-03T07:45:13;17.00;73.10
240;DHT22;104;53.590;10.004;2022-09-03T07:47:45;17.00;72.80
240;DHT22;104;53.590;10.004;2022-09-03T07:50:13;17.10;72.80
240;DHT22;104;53.590;10.004;2022-09-03T07:52:40;17.20;72.90
240;DHT22;104;53.590;10.004;2022-09-03T07:55:08;17.30;72.40
240;DHT22;104;53.590;10.004;2022-09-03T07:57:37;17.50;71.50
240;DHT22;104;53.590;10.004;2022-09-03T08:00:05;17.60;70.70
240;DHT22;104;53.590;10.004;2022-09-03T08:02:33;17.70;70.90
240;DHT22;104;53.590;10.004;2022-09-03T08:05:00;17.90;70.10
240;DHT22;104;53.590;10.004;2022-09-03T08:07:28;18.00;68.90
240;DHT22;104;53.590;10.004;2022-09-03T08:09:55;18.20;68.60
240;DHT22;104;53.590;10.004;2022-09-03T08:12:22;18.40;68.00
240;DHT22;104;53.590;10.004;2022-09-03T08:14:51;18.70;67.30
240;DHT22;104;53.590;10.004;2022-09-03T08:17:19;19.00;66.70
240;DHT22;104;53.590;10.004;2022-09-03T08:19:46;19.30;65.40
240;DHT22;104;53.590;10.004;2022-09-03T08:22:13;19.50;64.70
240;DHT22;104;53.590;10.004;2022-09-03T08:24:40;19.60;64.30
240;DHT22;104;53.590;10.004;2022-09-03T08:27:07;19.60;63.90
240;DHT22;104;53.590;10.004;2022-09-03T08:29:34;19.70;63.50
240;DHT22;104;53.590;10.004;2022-09-03T08:32:04;19.70;64.90
240;DHT22;104;53.590;10.004;2022-09-03T08:34:31;19.80;64.40
240;DHT22;104;53.590;10.004;2022-09-03T08:36:58;19.90;64.20
240;DHT22;104;53.590;10.004;2022-09-03T08:39:26;20.10;63.30
240;DHT22;104;53.590;10.004;2022-09-03T08:42:20;20.30;62.70
240;DHT22;104;53.590;10.004;2022-09-03T08:44:52;20.40;62.50
240;DHT22;104;53.590;10.004;2022-09-03T08:47:25;20.50;62.40
240;DHT22;104;53.590;10.004;2022-09-03T08:49:58;20.60;62.40
240;DHT22;104;53.590;10.004;2022-09-03T08:52:32;20.50;62.80
240;DHT22;104;53.590;10.004;2022-09-03T08:55:10;20.60;63.10
240;DHT22;104;53.590;10.004;2022-09-03T08:57:42;20.60;63.00
240;DHT22;104;53.590;10.004;2022-09-03T09:00:11;20.60;63.10
240;DHT22;104;53.590;10.004;2022-09-03T09:02:52;20.60;63.20
240;DHT22;104;53.590;10.004;2022-09-03T09:05:27;20.70;63.30
240;DHT22;104;53.590;10.004;2022-09-03T09:08:01;20.70;63.20
240;DHT22;104;53.590;10.004;2022-09-03T09:10:34;20.60;63.60
240;DHT22;104;53.590;10.004;2022-09-03T09:13:09;20.50;64.20
240;DHT22;104;53.590;10.004;2022-09-03T09:15:47;20.40;64.50
240;DHT22;104;53.590;10.004;2022-09-03T09:18:22;20.40;64.70
240;DHT22;104;53.590;10.004;2022-09-03T09:21:01;20.50;65.00
240;DHT22;104;53.590;10.004;2022-09-03T09:23:33;20.50;65.20
240;DHT22;104;53.590;10.004;2022-09-03T09:26:06;20.50;65.00
240;DHT22;104;53.590;10.004;2022-09-03T09:28:36;20.60;65.10
240;DHT22;104;53.590;10.004;2022-09-03T09:31:05;20.60;65.00
240;DHT22;104;53.590;10.004;2022-09-03T09:33:34;20.50;65.10
240;DHT22;104;53.590;10.004;2022-09-03T09:36:04;20.40;65.70
240;DHT22;104;53.590;10.004;2022-09-03T09:38:34;20.30;66.10
240;DHT22;104;53.590;10.004;2022-09-03T09:41:10;20.10;66.60
240;DHT22;104;53.590;10.004;2022-09-03T09:43:37;20.00;67.00
240;DHT22;104;53.590;10.004;2022-09-03T09:46:12;20.00;67.30
240;DHT22;104;53.590;10.004;2022-09-03T09:48:47;19.90;67.60
240;DHT22;104;53.590;10.004;2022-09-03T09:51:18;19.90;67.90
240;DHT22;104;53.590;10.004;2022-09-03T09:53:46;20.00;67.80
240;DHT22;104;53.590;10.004;2022-09-03T09:56:20;20.20;67.40
240;DHT22;104;53.590;10.004;2022-09-03T09:58:47;20.60;66.40
240;DHT22;104;53.590;10.004;2022-09-03T10:01:21;20.80;65.90
240;DHT22;104;53.590;10.004;2022-09-03T10:03:53;21.00;65.50
240;DHT22;104;53.590;10.004;2022-09-03T10:06:23;21.20;65.50
240;DHT22;104;53.590;10.004;2022-09-03T10:09:11;21.30;64.90
240;DHT22;104;53.590;10.004;2022-09-03T10:11:43;21.40;64.20
240;DHT22;104;53.590;10.004;2022-09-03T10:14:17;21.40;64.30
240;DHT22;104;53.590;10.004;2022-09-03T10:16:52;21.50;64.20
240;DHT22;104;53.590;10.004;2022-09-03T10:19:26;21.60;64.30
240;DHT22;104;53.590;10.004;2022-09-03T10:22:01;21.70;63.60
240;DHT22;104;53.590;10.004;2022-09-03T10:24:37;21.90;63.30
240;DHT22;104;53.590;10.004;2022-09-03T10:27:08;22.00;62.80
240;DHT22;104;53.590;10.004;2022-09-03T10:29:38;22.00;62.90
240;DHT22;104;53.590;10.004;2022-09-03T10:32:30;22.20;62.50
240;DHT22;104;53.590;10.004;2022-09-03T10:35:09;22.20;62.30
240;DHT22;104;53.590;10.004;2022-09-03T10:37:43;22.30;62.40
240;DHT22;104;53.590;10.004;2022-09-03T10:40:18;22.50;61.70
240;DHT22;104;53.590;10.004;2022-09-03T10:43:03;22.50;61.70
240;DHT22;104;53.590;10.004;2022-09-03T10:45:38;22.60;61.30
240;DHT22;104;53.590;10.004;2022-09-03T10:48:25;22.80;60.70
240;DHT22;104;53.590;10.004;2022-09-03T10:51:02;23.00;59.90
240;DHT22;104;53.590;10.004;2022-09-03T10:53:43;23.30;59.60
240;DHT22;104;53.590;10.004;2022-09-03T10:56:18;23.60;59.10
240;DHT22;104;53.590;10.004;2022-09-03T10:58:57;23.70;58.40
240;DHT22;104;53.590;10.004;2022-09-03T11:01:34;23.70;58.20
240;DHT22;104;53.590;10.004;2022-09-03T11:04:16;23.70;58.20
240;DHT22;104;53.590;10.004;2022-09-03T11:06:50;23.60;58.90
240;DHT22;104;53.590;10.004;2022-09-03T11:09:22;23.60;58.50
240;DHT22;104;53.590;10.004;2022-09-03T11:11:54;23.70;58.40
240;DHT22;104;53.590;10.004;2022-09-03T11:14:32;23.90;58.50
240;DHT22;104;53.590;10.004;2022-09-03T11:17:04;24.00;58.00
240;DHT22;104;53.590;10.004;2022-09-03T11:19:36;24.10;57.70
240;DHT22;104;53.590;10.004;2022-09-03T11:22:09;24.20;57.60
240;DHT22;104;53.590;10.004;2022-09-03T11:24:38;24.40;57.00
240;DHT22;104;53.590;10.004;2022-09-03T11:27:19;24.30;56.90
240;DHT22;104;53.590;10.004;2022-09-03T11:29:52;24.50;56.80
240;DHT22;104;53.590;10.004;2022-09-03T11:32:24;24.70;55.80
240;DHT22;104;53.590;10.004;2022-09-03T11:34:53;24.80;55.90
240;DHT22;104;53.590;10.004;2022-09-03T11:37:23;24.70;56.10
240;DHT22;104;53.590;10.004;2022-09-03T11:39:56;24.70;55.90
240;DHT22;104;53.590;10.004;2022-09-03T11:42:30;24.70;56.10
240;DHT22;104;53.590;10.004;2022-09-03T11:45:32;24.70;56.20
240;DHT22;104;53.590;10.004;2022-09-03T11:48:01;24.70;56.50
240;DHT22;104;53.590;10.004;2022-09-03T11:50:29;24.70;56.30
240;DHT22;104;53.590;10.004;2022-09-03T11:53:09;24.70;56.40
240;DHT22;104;53.590;10.004;2022-09-03T11:55:51;24.90;55.90
240;DHT22;104;53.590;10.004;2022-09-03T11:58:29;25.00;55.60
240;DHT22;104;53.590;10.004;2022-09-03T12:00:58;25.00;55.70
240;DHT22;104;53.590;10.004;2022-09-03T12:03:29;25.10;55.80
240;DHT22;104;53.590;10.004;2022-09-03T12:06:22;25.30;55.40
240;DHT22;104;53.590;10.004;2022-09-03T12:12:11;25.30;54.90
240;DHT22;104;53.590;10.004;2022-09-03T12:14:54;25.60;54.60
240;DHT22;104;53.590;10.004;2022-09-03T12:17:29;25.70;54.10
240;DHT22;104;53.590;10.004;2022-09-03T12:19:58;25.90;54.00
240;DHT22;104;53.590;10.004;2022-09-03T12:22:27;26.00;53.70
240;DHT22;104;53.590;10.004;2022-09-03T12:25:07;26.00;53.50
240;DHT22;104;53.590;10.004;2022-09-03T12:27:36;26.00;53.70
240;DHT22;104;53.590;10.004;2022-09-03T12:30:12;25.80;53.80
240;DHT22;104;53.590;10.004;2022-09-03T12:32:39;25.40;56.20
240;DHT22;104;53.590;10.004;2022-09-03T12:35:13;25.10;56.90
240;DHT22;104;53.590;10.004;2022-09-03T12:37:42;24.90;57.50
240;DHT22;104;53.590;10.004;2022-09-03T12:40:20;25.10;57.40
240;DHT22;104;53.590;10.004;2022-09-03T12:42:47;25.20;55.90
240;DHT22;104;53.590;10.004;2022-09-03T12:45:18;25.40;55.40
240;DHT22;104;53.590;10.004;2022-09-03T12:47:46;25.60;56.10
240;DHT22;104;53.590;10.004;2022-09-03T12:50:16;25.70;55.40
240;DHT22;104;53.590;10.004;2022-09-03T12:52:46;25.70;56.50
240;DHT22;104;53.590;10.004;2022-09-03T12:55:28;25.50;56.10
240;DHT22;104;53.590;10.004;2022-09-03T12:58:04;25.40;56.60
240;DHT22;104;53.590;10.004;2022-09-03T13:00:34;25.20;56.80
240;DHT22;104;53.590;10.004;2022-09-03T13:03:06;25.10;57.10
240;DHT22;104;53.590;10.004;2022-09-03T13:05:39;25.00;56.80
240;DHT22;104;53.590;10.004;2022-09-03T13:08:12;24.90;57.30
240;DHT22;104;53.590;10.004;2022-09-03T13:10:42;24.70;58.60
240;DHT22;104;53.590;10.004;2022-09-03T13:13:21;24.70;58.70
240;DHT22;104;53.590;10.004;2022-09-03T13:18:50;24.40;59.90
240;DHT22;104;53.590;10.004;2022-09-03T13:21:28;24.30;60.40
240;DHT22;104;53.590;10.004;2022-09-03T13:24:18;24.20;61.00
240;DHT22;104;53.590;10.004;2022-09-03T13:27:00;24.00;61.90
240;DHT22;104;53.590;10.004;2022-09-03T13:29:38;23.80;62.30
240;DHT22;104;53.590;10.004;2022-09-03T13:32:16;23.70;62.20
240;DHT22;104;53.590;10.004;2022-09-03T13:34:53;23.60;62.30
240;DHT22;104;53.590;10.004;2022-09-03T13:37:26;23.60;62.70
240;DHT22;104;53.590;10.004;2022-09-03T13:39:57;23.60;63.20
240;DHT22;104;53.590;10.004;2022-09-03T13:42:32;23.60;62.90
240;DHT22;104;53.590;10.004;2022-09-03T13:45:19;23.40;63.20
240;DHT22;104;53.590;10.004;2022-09-03T13:47:55;23.50;64.30
240;DHT22;104;53.590;10.004;2022-09-03T13:50:44;23.60;64.30
240;DHT22;104;53.590;10.004;2022-09-03T13:53:17;23.70;64.00
240;DHT22;104;53.590;10.004;2022-09-03T13:55:48;23.70;63.20
240;DHT22;104;53.590;10.004;2022-09-03T13:58:24;23.70;63.30
240;DHT22;104;53.590;10.004;2022-09-03T14:01:03;23.70;63.50
240;DHT22;104;53.590;10.004;2022-09-03T14:03:35;23.70;63.30
240;DHT22;104;53.590;10.004;2022-09-03T14:06:10;23.70;63.60
240;DHT22;104;53.590;10.004;2022-09-03T14:08:49;23.60;63.50
240;DHT22;104;53.590;10.004;2022-09-03T14:11:25;23.40;64.20
240;DHT22;104;53.590;10.004;2022-09-03T14:14:05;23.20;64.80
240;DHT22;104;53.590;10.004;2022-09-03T14:16:42;23.10;65.10
240;DHT22;104;53.590;10.004;2022-09-03T14:19:14;23.00;65.30
240;DHT22;104;53.590;10.004;2022-09-03T14:21:46;22.90;65.30
240;DHT22;104;53.590;10.004;2022-09-03T14:24:21;22.90;65.50
240;DHT22;104;53.590;10.004;2022-09-03T14:26:51;22.80;66.40
240;DHT22;104;53.590;10.004;2022-09-03T14:29:24;22.80;66.90
240;DHT22;104;53.590;10.004;2022-09-03T14:32:17;22.80;66.90
240;DHT22;104;53.590;10.004;2022-09-03T14:35:21;22.80;66.50
240;DHT22;104;53.590;10.004;2022-09-03T14:38:22;22.70;66.70
240;DHT22;104;53.590;10.004;2022-09-03T14:41:03;22.60;66.80
240;DHT22;104;53.590;10.004;2022-09-03T14:43:46;22.50;67.10
240;DHT22;104;53.590;10.004;2022-09-03T14:46:29;22.40;67.70
240;DHT22;104;53.590;10.004;2022-09-03T14:49:17;22.50;68.00
240;DHT22;104;53.590;10.004;2022-09-03T14:51:59;22.60;68.10
240;DHT22;104;53.590;10.004;2022-09-03T14:55:02;22.60;68.70
240;DHT22;104;53.590;10.004;2022-09-03T14:57:46;22.70;70.30
240;DHT22;104;53.590;10.004;2022-09-03T15:00:16;22.80;70.70
240;DHT22;104;53.590;10.004;2022-09-03T15:03:17;22.90;70.60
240;DHT22;104;53.590;10.004;2022-09-03T15:06:06;22.90;69.90
240;DHT22;104;53.590;10.004;2022-09-03T15:08:43;22.90;70.20
240;DHT22;104;53.590;10.004;2022-09-03T15:11:18;22.80;70.10
240;DHT22;104;53.590;10.004;2022-09-03T15:13:50;22.70;70.20
240;DHT22;104;53.590;10.004;2022-09-03T15:16:27;22.70;70.70
240;DHT22;104;53.590;10.004;2022-09-03T15:19:09;22.60;70.40
240;DHT22;104;53.590;10.004;2022-09-03T15:21:50;22.60;69.90
240;DHT22;104;53.590;10.004;2022-09-03T15:24:28;22.60;69.40
240;DHT22;104;53.590;10.004;2022-09-03T15:27:06;22.60;69.30
240;DHT22;104;53.590;10.004;2022-09-03T15:29:48;22.70;69.30
240;DHT22;104;53.590;10.004;2022-09-03T15:32:28;22.90;68.30
240;DHT22;104;53.590;10.004;2022-09-03T15:35:09;22.90;68.30
240;DHT22;104;53.590;10.004;2022-09-03T15:37:45;22.90;68.10
240;DHT22;104;53.590;10.004;2022-09-03T15:40:26;23.10;67.40
240;DHT22;104;53.590;10.004;2022-09-03T15:43:00;23.10;66.90
240;DHT22;104;53.590;10.004;2022-09-03T15:45:35;23.10;67.90
240;DHT22;104;53.590;10.004;2022-09-03T15:48:15;23.10;68.40
240;DHT22;104;53.590;10.004;2022-09-03T15:50:52;23.10;68.10
240;DHT22;104;53.590;10.004;2022-09-03T15:53:29;23.10;69.10
240;DHT22;104;53.590;10.004;2022-09-03T15:56:08;23.10;68.90
240;DHT22;104;53.590;10.004;2022-09-03T15:58:42;23.20;67.50
240;DHT22;104;53.590;10.004;2022-09-03T16:01:22;23.00;67.50
240;DHT22;104;53.590;10.004;2022-09-03T16:03:58;23.00;67.90
240;DHT22;104;53.590;10.004;2022-09-03T16:06:32;23.00;67.30
240;DHT22;104;53.590;10.004;2022-09-03T16:09:08;22.90;67.70
240;DHT22;104;53.590;10.004;2022-09-03T16:11:51;23.00;67.70
240;DHT22;104;53.590;10.004;2022-09-03T16:14:24;23.00;67.80
240;DHT22;104;53.590;10.004;2022-09-03T16:17:00;22.90;68.20
240;DHT22;104;53.590;10.004;2022-09-03T16:19:35;22.80;68.70
240;DHT22;104;53.590;10.004;2022-09-03T16:22:10;22.70;69.10
240;DHT22;104;53.590;10.004;2022-09-03T16:24:43;22.60;69.50
240;DHT22;104;53.590;10.004;2022-09-03T16:27:18;22.50;69.90
240;DHT22;104;53.590;10.004;2022-09-03T16:29:56;22.40;70.00
240;DHT22;104;53.590;10.004;2022-09-03T16:32:34;22.40;70.20
240;DHT22;104;53.590;10.004;2022-09-03T16:35:13;22.40;70.40
240;DHT22;104;53.590;10.004;2022-09-03T16:37:53;22.40;70.60
240;DHT22;104;53.590;10.004;2022-09-03T16:40:33;22.40;70.60
240;DHT22;104;53.590;10.004;2022-09-03T16:43:05;22.40;70.60
240;DHT22;104;53.590;10.004;2022-09-03T16:45:44;22.40;70.70
240;DHT22;104;53.590;10.004;2022-09-03T16:48:25;22.40;70.70
240;DHT22;104;53.590;10.004;2022-09-03T16:51:07;22.40;70.70
240;DHT22;104;53.590;10.004;2022-09-03T16:53:48;22.30;70.90
240;DHT22;104;53.590;10.004;2022-09-03T16:59:40;21.90;72.00
240;DHT22;104;53.590;10.004;2022-09-03T17:02:25;21.80;72.30
240;DHT22;104;53.590;10.004;2022-09-03T17:08:03;21.70;72.60
240;DHT22;104;53.590;10.004;2022-09-03T17:10:42;21.60;73.00
240;DHT22;104;53.590;10.004;2022-09-03T17:13:39;21.60;72.50